Time;durP1;ratioP1;P1;durP2;ratioP2;P2;SDS_P1;SDS_P2;PMS_P1;PMS_P2;Temp;Humidity;BMP_temperature;BMP_pressure;BME280_temperature;BME280_humidity;BME280_pressure;Samples;Min_cycle;Max_cycle;Signal;HPM_P1;HPM_P2
2022/03/01 00:00:17;;;;;;;9.80;5.13;;;;;;;19.03;47.26;101460.97;5049988;28;20172;-62
2022/03/01 00:02:44;;;;;;;11.40;5.70;;;;;;;19.03;47.41;101455.25;5033609;28;20222;-62
2022/03/01 00:05:09;;;;;;;8.10;4.60;;;;;;;19.03;47.53;101452.41;5072556;28;20201;-62
2022/03/01 00:07:35;;;;;;;12.87;5.00;;;;;;;19.04;47.45;101456.06;5069215;28;20490;-62
2022/03/01 00:10:00;;;;;;;8.50;5.40;;;;;;;18.99;47.58;101459.16;5072417;28;20539;-62
2022/03/01 00:12:26;;;;;;;9.73;5.07;;;;;;;18.98;47.45;101461.22;5055781;28;20211;-62
2022/03/01 00:14:52;;;;;;;8.50;5.07;;;;;;;19.04;47.42;101470.38;5074095;28;20183;-62
2022/03/01 00:17:17;;;;;;;8.80;5.33;;;;;;;18.98;47.55;101466.94;5074114;28;20281;-62
2022/03/01 00:19:43;;;;;;;12.90;5.30;;;;;;;18.99;47.79;101471.47;5056660;28;20420;-62
2022/03/01 00:22:08;;;;;;;9.63;4.70;;;;;;;18.99;47.57;101476.34;5074121;28;20182;-62
2022/03/01 00:24:33;;;;;;;10.70;5.50;;;;;;;18.97;47.68;101473.00;5073716;28;20163;-62
2022/03/01 00:26:59;;;;;;;8.70;4.40;;;;;;;18.96;47.90;101474.22;5072866;28;20163;-62
2022/03/01 00:29:24;;;;;;;9.70;4.93;;;;;;;18.93;48.29;101475.75;5072686;28;20167;-62
2022/03/01 00:31:50;;;;;;;11.33;5.07;;;;;;;18.95;48.26;101475.38;5072888;28;20246;-62
2022/03/01 00:34:15;;;;;;;10.83;4.70;;;;;;;18.92;48.11;101468.34;5073460;28;20182;-62
2022/03/01 00:36:41;;;;;;;10.20;4.83;;;;;;;18.95;48.08;101478.25;5073548;28;20187;-62
2022/03/01 00:39:06;;;;;;;8.53;4.73;;;;;;;18.93;48.01;101472.91;5053707;28;20258;-62
2022/03/01 00:41:32;;;;;;;8.63;4.40;;;;;;;18.95;48.20;101479.09;5054804;28;20199;-62
2022/03/01 00:43:58;;;;;;;10.80;5.07;;;;;;;18.95;48.09;101479.09;5058667;28;20183;-62
2022/03/01 00:46:26;;;;;;;11.07;5.50;;;;;;;18.92;48.02;101476.91;5072439;28;20173;-62
2022/03/01 00:48:52;;;;;;;10.50;4.97;;;;;;;18.92;48.30;101473.25;5071729;28;20198;-62
2022/03/01 00:51:18;;;;;;;12.53;4.90;;;;;;;18.95;48.17;101469.66;5060987;28;20785;-62
2022/03/01 00:53:43;;;;;;;7.53;4.27;;;;;;;18.93;48.09;101483.50;5053383;28;20414;-62
2022/03/01 00:56:08;;;;;;;12.60;5.10;;;;;;;18.88;48.63;101484.56;5052962;28;20249;-62
2022/03/01 00:58:37;;;;;;;7.90;5.20;;;;;;;18.92;48.14;101484.69;5053237;28;20179;-63
2022/03/01 01:01:05;;;;;;;11.27;5.00;;;;;;;18.92;48.41;101471.19;5051690;28;20663;-62
2022/03/01 01:03:30;;;;;;;9.17;5.20;;;;;;;18.88;48.34;101478.84;5052381;28;20508;-62
2022/03/01 01:05:56;;;;;;;7.57;4.73;;;;;;;18.88;48.35;101480.84;5052378;28;20474;-62
2022/03/01 01:08:21;;;;;;;7.83;5.20;;;;;;;18.85;48.64;101485.25;5056597;28;20513;-62
2022/03/01 01:10:48;;;;;;;9.00;5.30;;;;;;;18.90;48.28;101487.06;5072349;28;20179;-62
2022/03/01 01:13:14;;;;;;;7.40;4.83;;;;;;;18.88;48.29;101489.44;5072971;28;20248;-62
2022/03/01 01:15:40;;;;;;;9.53;4.80;;;;;;;18.92;48.26;101487.56;5072954;28;20413;-62
2022/03/01 01:18:05;;;;;;;8.53;5.03;;;;;;;18.88;48.66;101484.56;5074038;28;21077;-62
2022/03/01 01:20:31;;;;;;;6.50;4.33;;;;;;;18.88;48.44;101489.44;5071651;28;20638;-62
2022/03/01 01:22:56;;;;;;;10.93;4.50;;;;;;;18.86;48.66;101489.78;5072389;28;20155;-62
2022/03/01 01:25:23;;;;;;;9.33;4.80;;;;;;;18.86;48.57;101481.22;5072361;28;20171;-62
2022/03/01 01:27:53;;;;;;;6.13;4.00;;;;;;;18.87;48.48;101482.88;5072268;28;20175;-62
2022/03/01 01:30:20;;;;;;;9.23;4.40;;;;;;;18.85;48.77;101485.25;5071787;28;20424;-62
2022/03/01 01:32:48;;;;;;;7.40;4.70;;;;;;;18.85;48.49;101484.41;5089468;28;20956;-62
2022/03/01 01:35:13;;;;;;;10.23;4.50;;;;;;;18.85;48.59;101488.13;5092981;28;20501;-62
2022/03/01 01:37:39;;;;;;;6.37;4.17;;;;;;;18.85;48.66;101485.25;5091836;28;20955;-62
2022/03/01 01:40:06;;;;;;;8.30;3.67;;;;;;;18.85;48.74;101485.25;5091713;28;20258;-62
2022/03/01 01:42:31;;;;;;;6.93;3.93;;;;;;;18.83;48.69;101487.66;5092190;28;20178;-62
2022/03/01 01:44:56;;;;;;;8.10;4.20;;;;;;;18.83;48.59;101487.66;5059566;28;20421;-62
2022/03/01 01:47:22;;;;;;;8.60;4.67;;;;;;;18.82;48.91;101488.00;5060382;28;20565;-62
2022/03/01 01:49:47;;;;;;;7.10;4.30;;;;;;;18.83;48.86;101490.53;5051652;28;20543;-62
2022/03/01 01:52:13;;;;;;;6.87;4.17;;;;;;;18.84;48.90;101491.34;5052032;28;20168;-62
2022/03/01 01:54:38;;;;;;;6.83;4.20;;;;;;;18.82;48.97;101497.41;5034195;28;20172;-62
2022/03/01 01:57:17;;;;;;;8.53;4.03;;;;;;;18.83;48.78;101495.41;5050880;28;20198;-62
2022/03/01 01:59:46;;;;;;;8.00;4.20;;;;;;;18.81;48.83;101490.03;5069351;28;20174;-62
2022/03/01 02:02:13;;;;;;;9.13;4.40;;;;;;;18.82;48.81;101485.97;5070355;28;20473;-62
2022/03/01 02:04:39;;;;;;;7.00;4.17;;;;;;;18.78;48.95;101487.88;5072191;28;20413;-62
2022/03/01 02:07:05;;;;;;;7.63;3.97;;;;;;;18.80;49.10;101498.94;5050285;28;20596;-62
2022/03/01 02:09:30;;;;;;;5.70;3.97;;;;;;;18.78;49.01;101492.75;5043245;28;20225;-62
2022/03/01 02:11:55;;;;;;;7.67;4.50;;;;;;;18.77;48.92;101491.09;5051612;28;20406;-62
2022/03/01 02:14:21;;;;;;;7.87;4.50;;;;;;;18.77;48.74;101486.19;5053425;28;20179;-62
2022/03/01 02:16:46;;;;;;;6.20;3.93;;;;;;;18.78;49.18;101489.91;5050427;28;20198;-62
2022/03/01 02:19:12;;;;;;;5.80;4.00;;;;;;;18.75;48.89;101487.72;5033452;28;20163;-62
2022/03/01 02:21:57;;;;;;;8.10;4.50;;;;;;;18.75;48.88;101480.00;5051750;28;20183;-62
2022/03/01 02:24:26;;;;;;;6.70;4.20;;;;;;;18.75;48.94;101490.59;5050732;28;20751;-62
2022/03/01 02:26:58;;;;;;;6.93;3.90;;;;;;;18.75;49.21;101488.59;5050400;28;20407;-62
2022/03/01 02:29:24;;;;;;;8.20;4.10;;;;;;;18.74;49.20;101484.06;5050283;28;20422;-62
2022/03/01 02:31:50;;;;;;;8.13;4.30;;;;;;;18.76;49.09;101489.44;5050308;28;20462;-63
2022/03/01 02:34:16;;;;;;;7.10;3.80;;;;;;;18.75;48.89;101480.00;5035415;28;20594;-62
2022/03/01 02:36:41;;;;;;;9.37;4.57;;;;;;;18.76;48.78;101478.81;5031850;28;20470;-61
2022/03/01 02:39:06;;;;;;;6.10;3.90;;;;;;;18.76;48.92;101492.28;5038910;28;20176;-63
2022/03/01 02:41:35;;;;;;;9.47;4.67;;;;;;;18.74;49.05;101486.91;5038444;28;20649;-62
2022/03/01 02:44:02;;;;;;;5.90;3.90;;;;;;;18.75;49.15;101482.84;5044635;28;20183;-62
2022/03/01 02:46:27;;;;;;;6.23;3.83;;;;;;;18.75;48.85;101488.59;5045110;28;20468;-62
2022/03/01 02:48:53;;;;;;;8.33;4.47;;;;;;;18.73;49.22;101490.13;5038681;28;20426;-62
2022/03/01 02:51:18;;;;;;;7.47;4.30;;;;;;;18.71;49.14;101496.19;5044797;28;20242;-62
2022/03/01 02:53:44;;;;;;;6.70;3.90;;;;;;;18.73;49.13;101487.25;5032904;28;20380;-62
2022/03/01 02:56:09;;;;;;;7.60;3.57;;;;;;;18.73;49.07;101479.53;5041648;28;20176;-62
2022/03/01 02:58:34;;;;;;;6.57;4.23;;;;;;;18.73;49.24;101482.38;5047003;28;20662;-62
2022/03/01 03:01:00;;;;;;;8.27;4.40;;;;;;;18.71;48.98;101489.66;5049493;28;20250;-62
2022/03/01 03:03:25;;;;;;;6.80;3.93;;;;;;;18.72;49.12;101497.84;5038841;28;20188;-62
2022/03/01 03:06:09;;;;;;;6.77;4.07;;;;;;;18.73;49.08;101493.84;4715396;28;22162;-61
2022/03/01 03:08:35;;;;;;;7.00;4.07;;;;;;;18.71;49.17;101487.59;5056808;28;20215;-62
2022/03/01 03:11:00;;;;;;;6.90;4.20;;;;;;;18.70;49.35;101491.66;5049874;28;20503;-62
2022/03/01 03:13:26;;;;;;;8.00;4.10;;;;;;;18.69;49.45;101487.13;5052450;28;20587;-62
2022/03/01 03:15:51;;;;;;;6.77;4.30;;;;;;;18.68;49.24;101481.75;5070948;28;20236;-62
2022/03/01 03:18:17;;;;;;;5.80;3.80;;;;;;;18.69;49.06;101484.28;5070120;28;20227;-62
2022/03/01 03:20:42;;;;;;;6.43;3.90;;;;;;;18.69;49.10;101478.56;5069802;28;20615;-62
2022/03/01 03:23:08;;;;;;;5.03;3.50;;;;;;;18.68;49.18;101478.91;5072257;28;20592;-63
2022/03/01 03:25:34;;;;;;;6.50;4.03;;;;;;;18.69;49.23;101486.28;5070851;28;20630;-62
2022/03/01 03:27:59;;;;;;;7.30;3.80;;;;;;;18.72;49.23;101471.28;5069509;28;20171;-62
2022/03/01 03:30:25;;;;;;;6.87;4.00;;;;;;;18.70;49.12;101474.50;5050705;28;20175;-62
2022/03/01 03:32:50;;;;;;;6.10;3.60;;;;;;;18.70;49.54;101474.50;5051275;28;20179;-62
2022/03/01 03:35:16;;;;;;;5.40;3.60;;;;;;;18.73;48.99;101473.81;5069728;28;20182;-62
2022/03/01 03:37:41;;;;;;;6.13;3.40;;;;;;;18.71;48.99;101476.16;5060941;28;20196;-62
2022/03/01 03:40:07;;;;;;;5.33;3.60;;;;;;;18.67;49.22;101465.81;5049487;28;20183;-62
2022/03/01 03:42:33;;;;;;;6.23;3.60;;;;;;;18.68;49.23;101471.16;5049991;28;20179;-62
2022/03/01 03:44:59;;;;;;;5.43;3.67;;;;;;;18.66;48.98;101467.81;5064213;28;20204;-62
2022/03/01 03:47:24;;;;;;;7.27;3.70;;;;;;;18.69;49.40;101472.00;5069088;28;20409;-62
2022/03/01 03:49:49;;;;;;;5.67;3.77;;;;;;;18.66;49.25;101470.66;5068451;28;20182;-62
2022/03/01 03:52:15;;;;;;;6.97;3.73;;;;;;;18.66;49.56;101469.84;5052889;28;20174;-62
2022/03/01 03:54:40;;;;;;;5.23;3.70;;;;;;;18.68;49.18;101467.47;5070446;28;20186;-62
2022/03/01 03:57:08;;;;;;;6.33;3.67;;;;;;;18.67;49.40;101460.91;5069969;28;20198;-62
2022/03/01 03:59:35;;;;;;;5.73;3.87;;;;;;;18.66;49.45;101459.22;5069470;28;20579;-62
2022/03/01 04:02:02;;;;;;;5.63;3.80;;;;;;;18.66;49.48;101462.09;5068850;28;20973;-62
2022/03/01 04:04:27;;;;;;;6.47;3.47;;;;;;;18.67;49.27;101466.63;5069800;28;20417;-62
2022/03/01 04:06:52;;;;;;;6.17;3.57;;;;;;;18.66;49.38;101459.22;5068670;28;20521;-62
2022/03/01 04:09:18;;;;;;;7.70;3.47;;;;;;;18.67;49.27;101471.53;5062303;28;20175;-62
2022/03/01 04:11:43;;;;;;;6.43;3.57;;;;;;;18.64;49.49;101467.34;5061162;28;20192;-62
2022/03/01 04:14:09;;;;;;;5.97;3.10;;;;;;;18.67;49.33;101463.75;5057779;28;20182;-62
2022/03/01 04:16:34;;;;;;;7.07;3.80;;;;;;;18.63;49.77;101465.69;5052671;28;20245;-62
2022/03/01 04:18:59;;;;;;;6.07;3.60;;;;;;;18.63;49.66;101465.69;5048982;28;20205;-62
2022/03/01 04:21:25;;;;;;;4.50;3.10;;;;;;;18.64;49.53;101461.63;5049014;28;20234;-62
2022/03/01 04:23:51;;;;;;;11.90;3.63;;;;;;;18.64;49.36;101466.50;5049684;28;20519;-62
2022/03/01 04:26:16;;;;;;;6.93;4.40;;;;;;;18.67;49.36;101462.94;5049183;28;20237;-62
2022/03/01 04:28:42;;;;;;;4.33;3.20;;;;;;;18.66;49.16;101458.41;5031639;28;20191;-62
2022/03/01 04:31:07;;;;;;;6.90;3.70;;;;;;;18.68;49.50;101459.72;5049065;28;20592;-62
2022/03/01 04:33:33;;;;;;;8.10;3.80;;;;;;;18.67;49.40;101452.31;5051549;28;20698;-62
2022/03/01 04:36:02;;;;;;;6.20;3.47;;;;;;;18.63;49.50;101448.50;5049191;28;20628;-62
2022/03/01 04:38:28;;;;;;;6.00;3.80;;;;;;;18.63;49.41;101453.38;5049085;28;20210;-62
2022/03/01 04:40:54;;;;;;;5.30;3.10;;;;;;;18.67;49.37;101442.91;5049040;28;20468;-62
2022/03/01 04:43:19;;;;;;;5.57;3.60;;;;;;;18.70;49.24;101447.91;5050276;28;20453;-62
2022/03/01 04:45:45;;;;;;;6.00;3.50;;;;;;;18.68;49.40;101451.16;5068189;28;20409;-62
2022/03/01 04:48:10;;;;;;;4.67;3.57;;;;;;;18.64;49.40;101447.31;5069707;28;20171;-62
2022/03/01 04:50:36;;;;;;;5.23;3.27;;;;;;;18.65;49.49;101445.28;5068911;28;20179;-62
2022/03/01 04:53:01;;;;;;;4.70;3.60;;;;;;;18.61;49.23;101439.44;5069349;28;20179;-62
2022/03/01 04:55:27;;;;;;;5.40;3.60;;;;;;;18.64;49.33;101435.03;5073183;28;20175;-62
2022/03/01 04:57:52;;;;;;;4.40;3.30;;;;;;;18.65;49.55;101442.41;5072705;28;20851;-62
2022/03/01 05:00:18;;;;;;;4.03;3.20;;;;;;;18.63;49.49;101442.78;5071864;28;20167;-62
2022/03/01 05:02:44;;;;;;;6.50;4.00;;;;;;;18.68;49.36;101445.44;5059221;28;20183;-62
2022/03/01 05:05:13;;;;;;;4.30;3.13;;;;;;;18.68;49.18;101433.13;5053197;28;20195;-62
2022/03/01 05:07:46;;;;;;;4.90;3.40;;;;;;;18.66;49.42;101452.69;5053006;28;20468;-62
2022/03/01 05:10:18;;;;;;;6.20;3.97;;;;;;;18.65;49.34;101454.69;5073544;28;20441;-62
2022/03/01 05:12:49;;;;;;;6.43;3.90;;;;;;;18.65;49.43;101453.84;5055812;28;20428;-62
2022/03/01 05:15:15;;;;;;;5.90;3.70;;;;;;;18.65;49.55;101439.56;5069183;28;20428;-62
2022/03/01 05:17:40;;;;;;;5.77;3.57;;;;;;;18.64;49.29;101450.19;5072369;28;20545;-62
2022/03/01 05:20:07;;;;;;;5.10;3.50;;;;;;;18.64;49.38;101450.19;5072486;28;20416;-62
2022/03/01 05:22:32;;;;;;;5.67;3.50;;;;;;;18.64;49.48;101446.47;5063163;28;20180;-62
2022/03/01 05:24:58;;;;;;;5.27;3.47;;;;;;;18.65;49.57;101451.00;5045669;28;20452;-62
2022/03/01 05:27:23;;;;;;;5.20;3.63;;;;;;;18.66;49.46;101464.94;5061279;28;20182;-62
2022/03/01 05:29:50;;;;;;;5.50;3.53;;;;;;;18.66;49.16;101461.28;5051935;28;20268;-62
2022/03/01 05:32:15;;;;;;;5.90;3.67;;;;;;;18.66;49.31;101462.09;5086210;28;20210;-62
2022/03/01 05:34:41;;;;;;;5.07;3.50;;;;;;;18.65;49.21;101457.56;5093049;28;20408;-62
2022/03/01 05:37:06;;;;;;;7.77;3.67;;;;;;;18.62;49.40;101461.13;5092386;28;20198;-62
2022/03/01 05:39:32;;;;;;;4.20;3.23;;;;;;;18.65;49.49;101463.28;5085745;28;20175;-61
2022/03/01 05:41:57;;;;;;;3.77;2.93;;;;;;;18.66;49.47;101458.41;5072189;28;20174;-61
2022/03/01 05:44:23;;;;;;;4.13;3.10;;;;;;;18.66;49.12;101476.38;5072311;28;20537;-62
2022/03/01 05:46:48;;;;;;;6.00;3.23;;;;;;;18.67;49.29;101465.81;5071600;28;20179;-62
2022/03/01 05:49:13;;;;;;;4.33;3.50;;;;;;;18.66;49.47;101470.66;5071866;28;20692;-62
2022/03/01 05:51:39;;;;;;;5.23;3.20;;;;;;;18.65;49.54;101473.88;5053904;28;20233;-62
2022/03/01 05:54:04;;;;;;;5.87;3.57;;;;;;;18.67;49.19;101471.53;5051766;28;20175;-62
2022/03/01 05:56:30;;;;;;;4.30;3.20;;;;;;;18.66;49.14;101470.66;5056112;28;20336;-62
2022/03/01 05:58:56;;;;;;;4.97;3.20;;;;;;;18.66;49.13;101467.81;5072002;28;20267;-62
2022/03/01 06:01:21;;;;;;;5.80;3.50;;;;;;;18.62;49.33;101480.31;5071394;28;20222;-62
2022/03/01 06:03:47;;;;;;;5.07;3.30;;;;;;;18.66;49.32;101475.56;5070819;28;20234;-62
2022/03/01 06:06:12;;;;;;;5.30;3.57;;;;;;;18.66;49.40;101482.13;5070342;28;20667;-61
2022/03/01 06:08:37;;;;;;;4.10;3.10;;;;;;;18.68;49.19;101491.19;5070921;28;20706;-60
2022/03/01 06:11:03;;;;;;;7.80;3.93;;;;;;;18.69;49.34;101490.00;5073986;28;20182;-60
2022/03/01 06:13:28;;;;;;;4.70;3.10;;;;;;;18.70;49.31;101487.97;5071671;28;20658;-61
2022/03/01 06:15:58;;;;;;;4.73;3.40;;;;;;;18.66;49.24;101493.56;5071400;28;20190;-62
2022/03/01 06:18:24;;;;;;;5.80;3.40;;;;;;;18.66;49.34;101490.69;5071664;28;20188;-61
2022/03/01 06:20:49;;;;;;;4.50;2.93;;;;;;;18.69;49.30;101489.16;5068637;28;20429;-62
2022/03/01 06:23:14;;;;;;;5.07;3.43;;;;;;;18.66;49.27;101487.00;5051362;28;20191;-62
2022/03/01 06:25:42;;;;;;;5.87;4.00;;;;;;;18.67;49.36;101500.94;5051568;28;20168;-63
2022/03/01 06:28:07;;;;;;;5.10;3.30;;;;;;;18.66;49.32;101492.75;5051441;28;20194;-61
2022/03/01 06:30:33;;;;;;;4.00;2.80;;;;;;;18.67;49.29;101492.34;5054506;28;20461;-62
2022/03/01 06:32:58;;;;;;;4.67;3.30;;;;;;;18.67;49.19;101500.13;5071141;28;20284;-62
2022/03/01 06:35:23;;;;;;;4.40;2.97;;;;;;;18.67;49.43;101489.50;5069843;28;20203;-62
2022/03/01 06:37:49;;;;;;;5.10;2.80;;;;;;;18.66;49.21;101484.16;5070788;28;20191;-62
2022/03/01 06:40:14;;;;;;;6.03;3.40;;;;;;;18.69;48.99;101490.00;5070485;28;20171;-62
2022/03/01 06:42:40;;;;;;;4.87;3.40;;;;;;;18.68;49.40;101494.06;5058252;28;20183;-62
2022/03/01 06:45:06;;;;;;;4.53;3.23;;;;;;;18.71;49.22;101501.09;5066606;28;20427;-62
2022/03/01 06:47:32;;;;;;;4.30;2.83;;;;;;;18.70;49.09;101494.53;5070692;28;20175;-62
2022/03/01 06:49:57;;;;;;;3.87;2.93;;;;;;;18.70;49.08;101499.41;5069652;28;20422;-62
2022/03/01 06:52:23;;;;;;;4.70;3.63;;;;;;;18.71;49.13;101510.50;5069958;28;20182;-62
2022/03/01 06:54:48;;;;;;;5.60;3.43;;;;;;;18.69;49.41;101510.03;5069360;28;20183;-62
2022/03/01 06:57:14;;;;;;;6.47;3.47;;;;;;;18.71;48.99;101512.53;5050944;28;20195;-62
2022/03/01 06:59:39;;;;;;;4.33;3.03;;;;;;;18.69;49.20;101510.03;5050143;28;20168;-62
2022/03/01 07:02:05;;;;;;;4.10;2.70;;;;;;;18.72;48.97;101506.44;5066678;28;20222;-62
2022/03/01 07:04:30;;;;;;;4.07;3.10;;;;;;;18.71;49.14;101513.34;5069811;28;20190;-62
2022/03/01 07:06:56;;;;;;;4.63;3.30;;;;;;;18.69;49.01;101498.59;5064305;28;20228;-62
2022/03/01 07:09:21;;;;;;;5.10;3.40;;;;;;;18.72;49.09;101509.31;5064547;28;20183;-62
2022/03/01 07:11:47;;;;;;;3.57;3.17;;;;;;;18.69;49.23;101510.03;5069809;28;20178;-62
2022/03/01 07:14:13;;;;;;;5.40;3.33;;;;;;;18.69;49.13;101512.88;5070611;28;20189;-62
2022/03/01 07:16:38;;;;;;;7.53;3.10;;;;;;;18.69;49.70;101512.88;5070159;28;20201;-62
2022/03/01 07:19:04;;;;;;;4.53;2.57;;;;;;;18.69;48.91;101526.34;5068738;28;20538;-62
2022/03/01 07:21:29;;;;;;;6.13;3.30;;;;;;;18.68;49.30;101528.38;5070513;28;20182;-63
2022/03/01 07:23:54;;;;;;;4.77;3.10;;;;;;;18.68;49.12;101530.41;5070372;28;20179;-62
2022/03/01 07:26:20;;;;;;;13.87;8.17;;;;;;;18.33;46.54;101535.63;5053559;28;20182;-62
2022/03/01 07:28:45;;;;;;;17.23;10.80;;;;;;;17.70;43.94;101535.88;5069142;28;20252;-63
2022/03/01 07:31:11;;;;;;;15.43;10.47;;;;;;;18.18;43.47;101529.66;5056874;28;20353;-62
2022/03/01 07:33:38;;;;;;;23.27;11.93;;;;;;;18.72;43.07;101526.47;5047294;28;20188;-62
2022/03/01 07:36:04;;;;;;;19.90;11.07;;;;;;;18.84;42.78;101535.09;5049645;28;20175;-62
2022/03/01 07:38:29;;;;;;;20.50;11.73;;;;;;;18.96;43.81;101526.53;5049380;28;20470;-62
2022/03/01 07:40:54;;;;;;;20.23;12.17;;;;;;;19.08;44.71;101523.72;5052923;28;20184;-62
2022/03/01 07:43:20;;;;;;;18.97;11.03;;;;;;;19.15;45.14;101525.97;5064761;28;20179;-62
2022/03/01 07:45:45;;;;;;;20.17;11.30;;;;;;;19.10;45.13;101526.19;5069489;28;20182;-62
2022/03/01 07:48:11;;;;;;;17.10;10.27;;;;;;;18.92;44.25;101531.28;5066050;28;20175;-63
2022/03/01 07:50:36;;;;;;;13.90;9.60;;;;;;;18.83;45.16;101526.88;5064934;28;20186;-62
2022/03/01 07:53:02;;;;;;;15.23;9.60;;;;;;;18.68;44.66;101524.66;5064463;28;20228;-62
2022/03/01 07:55:29;;;;;;;13.23;8.83;;;;;;;18.65;43.68;101526.22;5058109;28;20184;-62
2022/03/01 07:57:54;;;;;;;15.83;9.63;;;;;;;18.65;42.35;101516.78;5049793;28;20257;-62
2022/03/01 08:00:20;;;;;;;14.67;8.50;;;;;;;18.61;42.84;101508.06;5048858;28;20774;-62
2022/03/01 08:02:45;;;;;;;15.17;8.93;;;;;;;18.56;42.91;101516.88;5052486;28;20171;-62
2022/03/01 08:05:11;;;;;;;14.07;9.70;;;;;;;18.64;42.10;101518.81;5053569;28;20246;-62
2022/03/01 08:07:37;;;;;;;14.93;8.80;;;;;;;18.94;42.55;101511.75;5069613;28;20219;-62
2022/03/01 08:10:03;;;;;;;17.47;9.63;;;;;;;19.22;43.05;101509.91;5066476;28;20851;-62
2022/03/01 08:12:28;;;;;;;11.67;7.60;;;;;;;19.12;43.69;101507.47;5052281;28;20632;-62
2022/03/01 08:14:54;;;;;;;13.13;7.80;;;;;;;19.14;43.86;101510.00;5045013;28;20429;-63
2022/03/01 08:17:20;;;;;;;14.70;8.53;;;;;;;19.08;44.90;101518.00;5067651;28;20213;-62
2022/03/01 08:19:46;;;;;;;14.67;9.03;;;;;;;19.02;44.95;101513.66;5068691;28;20646;-62
2022/03/01 08:22:12;;;;;;;12.80;8.27;;;;;;;19.08;45.44;101518.00;5069444;28;20258;-63
2022/03/01 08:24:38;;;;;;;11.10;7.50;;;;;;;19.08;45.49;101528.59;5051508;28;20504;-62
2022/03/01 08:27:03;;;;;;;12.97;7.97;;;;;;;19.08;45.47;101529.44;5050609;28;20191;-62
2022/03/01 08:29:29;;;;;;;13.63;8.07;;;;;;;18.87;45.23;101517.22;5051117;28;20237;-62
2022/03/01 08:31:54;;;;;;;11.10;7.70;;;;;;;18.82;45.63;101517.44;5070971;28;20557;-62
2022/03/01 08:34:20;;;;;;;13.70;6.97;;;;;;;18.85;45.87;101521.63;5058015;28;20277;-62
2022/03/01 08:36:45;;;;;;;15.60;7.80;;;;;;;18.90;46.01;101527.97;5052921;28;20234;-62
2022/03/01 08:39:11;;;;;;;16.90;7.97;;;;;;;18.93;45.78;101518.69;5057696;28;20536;-63
2022/03/01 08:41:36;;;;;;;14.40;8.17;;;;;;;18.80;43.98;101516.97;5061710;28;20183;-62
2022/03/01 08:44:02;;;;;;;15.37;9.70;;;;;;;18.73;41.05;101522.44;5062991;28;20186;-62
2022/03/01 08:46:28;;;;;;;17.07;9.10;;;;;;;18.72;40.50;101519.94;5073230;28;20635;-62
2022/03/01 08:48:53;;;;;;;12.27;8.17;;;;;;;18.81;43.22;101518.63;5072380;28;20421;-62
2022/03/01 08:51:22;;;;;;;23.63;8.27;;;;;;;18.92;43.19;101522.72;5070668;28;20178;-62
2022/03/01 08:53:50;;;;;;;17.13;8.20;;;;;;;18.86;42.10;101515.53;5071318;28;20167;-62
2022/03/01 08:56:16;;;;;;;12.73;8.13;;;;;;;18.88;41.49;101512.34;5059736;28;20448;-62
2022/03/01 08:58:43;;;;;;;14.77;8.23;;;;;;;18.91;41.12;101512.47;5069644;28;20486;-62
2022/03/01 09:01:08;;;;;;;14.60;7.50;;;;;;;18.87;41.75;101510.66;5053419;28;20341;-62
2022/03/01 09:03:34;;;;;;;21.00;8.97;;;;;;;18.86;42.30;101509.81;5058820;28;20425;-62
2022/03/01 09:05:59;;;;;;;19.47;7.73;;;;;;;18.99;43.03;101513.53;5050826;28;20407;-62
2022/03/01 09:08:25;;;;;;;14.10;7.70;;;;;;;18.97;43.41;101515.94;5058968;28;20215;-65
2022/03/01 09:10:50;;;;;;;17.30;7.00;;;;;;;18.88;44.20;101513.19;5071935;28;20210;-62
2022/03/01 09:13:15;;;;;;;17.77;8.53;;;;;;;18.91;44.00;101525.94;5070839;28;20883;-62
2022/03/01 09:15:41;;;;;;;15.13;8.17;;;;;;;18.86;44.15;101534.75;5072964;28;20182;-61
2022/03/01 09:18:06;;;;;;;17.73;7.13;;;;;;;18.94;44.45;101534.66;5072714;28;20612;-61
2022/03/01 09:20:32;;;;;;;11.10;7.37;;;;;;;18.88;44.65;101536.06;5072223;28;20175;-62
2022/03/01 09:22:58;;;;;;;11.77;6.10;;;;;;;18.82;45.06;101537.47;5072313;28;20171;-62
2022/03/01 09:25:23;;;;;;;14.40;7.23;;;;;;;18.85;45.00;101535.91;5072405;28;20692;-62
2022/03/01 09:27:49;;;;;;;15.30;6.47;;;;;;;18.84;45.33;101532.25;5072448;28;20254;-62
2022/03/01 09:30:14;;;;;;;13.10;6.73;;;;;;;18.79;45.24;101529.59;5071532;28;20175;-62
2022/03/01 09:32:40;;;;;;;14.17;6.17;;;;;;;18.75;45.66;101534.34;5092691;28;20189;-61
2022/03/01 09:35:06;;;;;;;15.07;6.70;;;;;;;18.74;45.74;101529.81;5092728;28;20192;-61
2022/03/01 09:37:32;;;;;;;13.87;6.00;;;;;;;18.75;45.78;101528.63;5091889;28;20217;-61
2022/03/01 09:40:00;;;;;;;10.93;6.20;;;;;;;18.78;45.89;101527.09;5091359;28;20787;-61
2022/03/01 09:42:29;;;;;;;11.03;6.40;;;;;;;18.77;46.19;101529.09;5090925;28;20181;-62
2022/03/01 09:44:57;;;;;;;10.67;5.80;;;;;;;18.73;46.31;101533.88;5043519;28;20428;-62
2022/03/01 09:47:23;;;;;;;13.87;5.77;;;;;;;18.73;46.63;101521.59;5070665;28;20772;-62
2022/03/01 09:49:48;;;;;;;13.93;6.27;;;;;;;18.74;46.31;101517.53;5069255;28;20417;-62
2022/03/01 09:52:14;;;;;;;13.53;6.10;;;;;;;18.73;46.64;101521.59;5087617;28;20178;-62
2022/03/01 09:54:40;;;;;;;11.13;6.60;;;;;;;18.69;46.72;101521.47;5074485;28;20174;-62
2022/03/01 09:57:05;;;;;;;11.13;5.90;;;;;;;18.72;46.66;101517.06;5089161;28;20205;-61
2022/03/01 09:59:31;;;;;;;12.60;5.77;;;;;;;18.70;46.75;101517.41;5091427;28;20182;-61
2022/03/01 10:01:56;;;;;;;15.37;5.67;;;;;;;18.68;46.76;101513.22;5091694;28;20264;-61
2022/03/01 10:04:21;;;;;;;9.90;6.50;;;;;;;18.68;47.10;101516.94;5075698;28;20172;-61
2022/03/01 10:06:48;;;;;;;10.40;6.13;;;;;;;18.69;47.06;101510.03;5033457;28;20231;-61
2022/03/01 10:09:17;;;;;;;9.70;5.83;;;;;;;18.71;47.19;101515.41;5063695;28;20186;-61
2022/03/01 10:11:43;;;;;;;11.00;5.37;;;;;;;18.73;47.15;101508.13;5070193;28;20504;-61
2022/03/01 10:14:09;;;;;;;9.90;6.03;;;;;;;18.69;47.43;101509.19;5071295;28;20432;-61
2022/03/01 10:16:40;;;;;;;12.93;5.67;;;;;;;18.69;47.37;101504.31;5071320;28;20182;-62
2022/03/01 10:19:18;;;;;;;16.07;6.07;;;;;;;18.70;47.25;101508.81;5070946;28;20186;-62
2022/03/01 10:22:08;;;;;;;13.20;6.13;;;;;;;18.71;47.38;101507.63;5071852;28;20908;-62
2022/03/01 10:24:33;;;;;;;11.43;6.23;;;;;;;18.73;47.21;101502.41;5070277;28;20445;-62
2022/03/01 10:27:01;;;;;;;14.90;5.63;;;;;;;18.71;47.57;101498.25;5071254;28;20412;-62
2022/03/01 10:29:28;;;;;;;8.37;5.90;;;;;;;18.72;47.35;101497.84;5070959;28;20179;-62
2022/03/01 10:31:59;;;;;;;7.50;5.27;;;;;;;18.71;47.46;101516.22;5070703;28;20544;-62
2022/03/01 10:34:24;;;;;;;10.50;6.00;;;;;;;18.75;46.99;101507.75;5070752;28;20397;-61
2022/03/01 10:36:50;;;;;;;8.50;5.10;;;;;;;18.75;47.69;101507.75;5071448;28;20514;-61
2022/03/01 10:39:18;;;;;;;9.93;5.80;;;;;;;18.74;47.49;101504.06;5070558;28;20523;-61
2022/03/01 10:41:45;;;;;;;8.67;6.20;;;;;;;18.72;47.90;101500.72;5059797;28;20180;-61
2022/03/01 10:44:21;;;;;;;9.13;5.37;;;;;;;18.69;47.88;101504.31;5049114;28;20483;-61
2022/03/01 10:46:58;;;;;;;9.87;5.10;;;;;;;18.71;47.71;101501.91;5051395;28;20498;-61
2022/03/01 10:49:25;;;;;;;13.10;5.93;;;;;;;18.74;47.48;101509.81;5050051;28;20437;-61
2022/03/01 10:51:54;;;;;;;12.00;6.00;;;;;;;18.73;47.99;101507.28;5049800;28;20427;-61
2022/03/01 10:54:29;;;;;;;9.70;4.93;;;;;;;18.74;47.77;101509.81;5051171;28;20422;-61
2022/03/01 10:56:55;;;;;;;8.60;5.30;;;;;;;18.73;47.72;101499.56;5051159;28;20456;-61
2022/03/01 10:59:22;;;;;;;9.10;5.23;;;;;;;18.75;48.00;101491.44;5051653;28;20484;-61
2022/03/01 11:01:47;;;;;;;11.60;5.60;;;;;;;18.75;47.78;101496.31;5049612;28;20496;-61
2022/03/01 11:04:13;;;;;;;8.47;5.13;;;;;;;18.76;47.98;101500.88;5050413;28;20778;-61
2022/03/01 11:06:38;;;;;;;9.13;4.83;;;;;;;18.76;47.82;101498.00;5067454;28;20202;-61
2022/03/01 11:09:05;;;;;;;10.73;5.67;;;;;;;18.75;47.78;101491.44;5057365;28;20172;-62
2022/03/01 11:11:30;;;;;;;11.23;4.77;;;;;;;18.75;48.01;101493.44;5050243;28;20525;-62
2022/03/01 11:13:55;;;;;;;7.17;4.87;;;;;;;18.76;47.92;101486.56;5038689;28;20425;-62
2022/03/01 11:16:33;;;;;;;9.73;5.50;;;;;;;18.75;48.08;101491.44;5069887;28;20765;-61